Terminal Aerodrome Forecast
Issued by NWS Wilmington, OH

Current Version | Previous Version | Text Only | Print | Product List | Glossary Off
Versions: 1 2 3 4 5 6 7 8 9 10 11 12 13 14 15 16 17 18 19 20 21 22 23 24 25 26 27

000
FTUS41 KILN 182056 AAA
TAFCVG
TAF AMD
KCVG 182056Z 1821/1924 22009KT P6SM VCSH FEW035 OVC200
     FM190300 21005KT P6SM OVC035
     FM190900 25004KT P6SM BKN025
     FM191100 VRB03KT 5SM BR BKN008
     FM191500 25004KT P6SM BKN015
     FM191700 26005KT P6SM SCT015=

USA.gov is the U.S. government's official web portal to all federal, state and local government web resources and services.